Los Menucos, Argentina
Current Conditions -  °F | °C
As of 7:00 AM on Saturday 29 Nov 2014 (Local Time) from SAZN Reporting Station
Broken Clouds Broken Clouds  
Wind Chill: 14°   Ceiling: 20000
Heat Index: 14°   Visibility: 6mi
Dew Point:   Wind: 5mph
Humidity: 48%   Direction: 230°SW
Pressure: 29.88"   Gusts: NA
Location:  40.83°S, 68.13°W
Report Text: SAZN 291000Z 23004KT 9999 FEW050 SCT100BKN200 14/03 Q1012
Loading
Personal Weather Stations






























Interactive Weather Map New forecast layout! Learn more

10-Day Weather Forecast

Advertisements
Track Severe Weather on mobile